Time;durP1;ratioP1;P1;durP2;ratioP2;P2;SDS_P1;SDS_P2;PMS_P1;PMS_P2;Temp;Humidity;BMP_temperature;BMP_pressure;BME280_temperature;BME280_humidity;BME280_pressure;Samples;Min_cycle;Max_cycle;Signal;HPM_P1;HPM_P2
2021/01/21 04:01:31;;;;;;;193.55;79.87;;;;;;;-22.25;100.00;101562.81;1737517;78;21631;-59
2021/01/21 04:04:03;;;;;;;198.38;75.52;;;;;;;-22.16;100.00;101561.88;1777485;78;21008;-59
2021/01/21 04:06:32;;;;;;;218.95;77.03;;;;;;;-22.15;100.00;101564.82;1767395;78;22090;-57
2021/01/21 04:09:03;;;;;;;204.93;74.30;;;;;;;-22.16;100.00;101573.00;1754878;78;21111;-57
2021/01/21 04:11:33;;;;;;;211.43;84.28;;;;;;;-22.15;100.00;101572.23;1744469;79;21390;-58
2021/01/21 04:14:03;;;;;;;189.15;74.60;;;;;;;-22.15;100.00;101573.08;1745836;79;27163;-57
2021/01/21 04:16:32;;;;;;;227.00;83.60;;;;;;;-22.09;100.00;101577.73;1755457;79;21600;-57
2021/01/21 04:19:03;;;;;;;194.30;75.00;;;;;;;-22.05;100.00;101579.13;1753592;79;21253;-57
2021/01/21 04:21:32;;;;;;;181.25;68.75;;;;;;;-22.05;100.00;101577.05;1756309;79;27644;-58
2021/01/21 04:24:03;;;;;;;176.35;68.35;;;;;;;-22.11;100.00;101578.94;1759270;79;21386;-58
2021/01/21 04:26:33;;;;;;;175.05;66.07;;;;;;;-22.16;100.00;101571.37;1753796;79;21187;-59
2021/01/21 04:29:03;;;;;;;147.72;54.35;;;;;;;-22.16;100.00;101580.42;1749478;79;21118;-57
2021/01/21 04:31:31;;;;;;;144.25;56.98;;;;;;;-22.18;100.00;101577.91;1720945;81;21179;-59
2021/01/21 04:34:13;;;;;;;160.60;57.47;;;;;;;-22.10;100.00;101569.48;1819317;78;22733;-59
2021/01/21 04:36:41;;;;;;;176.75;65.22;;;;;;;-22.07;100.00;101573.30;1785984;79;21589;-58
2021/01/21 04:39:10;;;;;;;170.25;67.90;;;;;;;-22.05;100.00;101574.19;1779435;78;21249;-57
2021/01/21 04:41:40;;;;;;;160.70;60.48;;;;;;;-22.07;100.00;101576.17;1737753;82;21583;-57
2021/01/21 04:44:12;;;;;;;153.93;59.65;;;;;;;-22.13;100.00;101578.06;1753261;80;21590;-58
2021/01/21 04:46:52;;;;;;;182.67;67.03;;;;;;;-22.15;100.00;101579.66;1882460;75;22492;-57
2021/01/21 04:49:22;;;;;;;183.85;65.90;;;;;;;-22.23;100.00;101584.33;1846169;77;20900;-58
2021/01/21 04:51:53;;;;;;;180.72;67.70;;;;;;;-22.23;100.00;101585.56;1824722;77;22250;-58
2021/01/21 04:54:29;;;;;;;158.52;60.63;;;;;;;-22.22;100.00;101575.28;1842628;75;26687;-58
2021/01/21 04:57:03;;;;;;;170.82;62.75;;;;;;;-22.18;100.00;101577.91;1839265;77;21460;-58
2021/01/21 04:59:46;;;;;;;156.20;59.07;;;;;;;-22.07;100.00;101571.23;1815627;78;22833;-59
2021/01/21 05:02:17;;;;;;;151.15;56.90;;;;;;;-22.08;100.00;101577.81;1779270;79;21042;-57
2021/01/21 05:04:47;;;;;;;153.10;55.70;;;;;;;-22.01;100.00;101578.44;1733116;82;21584;-59
2021/01/21 05:07:17;;;;;;;129.93;46.55;;;;;;;-21.91;100.00;101590.34;1716610;82;21069;-58
2021/01/21 05:09:45;;;;;;;147.10;52.62;;;;;;;-21.82;100.00;101594.75;1721666;82;21005;-58
2021/01/21 05:12:15;;;;;;;166.97;62.00;;;;;;;-21.72;100.00;101590.96;1752066;80;29066;-59
2021/01/21 05:14:46;;;;;;;162.80;65.70;;;;;;;-21.61;100.00;101598.34;1722090;82;21022;-59
2021/01/21 05:17:33;;;;;;;175.60;82.77;;;;;;;-21.43;100.00;101595.64;1776965;78;27805;-58
2021/01/21 05:20:05;;;;;;;147.87;59.83;;;;;;;-21.29;100.00;101605.53;1709622;80;21719;-59
2021/01/21 05:23:01;;;;;;;130.52;51.30;;;;;;;-21.07;100.00;101602.09;1760539;79;21374;-60
2021/01/21 05:25:47;;;;;;;132.20;52.05;;;;;;;-20.85;100.00;101612.67;1748061;80;21053;-58
2021/01/21 05:28:17;;;;;;;93.22;39.80;;;;;;;-20.65;100.00;101611.62;1760323;80;21579;-59
2021/01/21 05:30:51;;;;;;;90.90;38.00;;;;;;;-20.50;100.00;101613.30;1747957;80;20971;-59
2021/01/21 05:33:34;;;;;;;112.13;40.63;;;;;;;-20.27;100.00;101606.89;1830404;78;23166;-59
2021/01/21 05:36:07;;;;;;;119.72;47.60;;;;;;;-20.13;100.00;101623.00;1803052;79;21002;-58
2021/01/21 05:38:56;;;;;;;93.95;39.33;;;;;;;-19.97;100.00;101621.38;1804000;79;21211;-60
2021/01/21 05:41:43;;;;;;;115.40;42.75;;;;;;;-19.82;100.00;101622.59;1799923;79;20986;-61
2021/01/21 05:44:22;;;;;;;133.73;53.73;;;;;;;-19.63;100.00;101615.22;1822303;78;23121;-58
2021/01/21 05:46:52;;;;;;;128.62;53.92;;;;;;;-19.55;100.00;101617.05;1774251;79;20916;-59
2021/01/21 05:49:21;;;;;;;130.60;52.53;;;;;;;-19.44;100.00;101619.41;1793127;79;21190;-60
2021/01/21 05:51:50;;;;;;;113.55;51.23;;;;;;;-19.31;100.00;101625.94;1762036;79;21576;-58
2021/01/21 05:54:22;;;;;;;136.95;53.30;;;;;;;-19.19;100.00;101633.69;1789046;78;21015;-59
2021/01/21 05:56:54;;;;;;;112.28;45.85;;;;;;;-19.09;100.00;101635.56;1770276;79;21018;-58
2021/01/21 05:59:24;;;;;;;104.65;46.33;;;;;;;-18.99;100.00;101631.27;1797890;79;20972;-60
2021/01/21 06:01:54;;;;;;;;;;;;;;;-18.93;100.00;101630.17;1806538;79;21560;-59
2021/01/21 06:04:26;;;;;;;80.03;30.65;;;;;;;-18.86;100.00;101634.02;1808336;79;20170;-59
2021/01/21 06:06:54;;;;;;;;;;;;;;;-18.79;100.00;101630.47;1801338;79;20988;-59
2021/01/21 06:09:29;;;;;;;95.97;38.90;;;;;;;-18.70;100.00;101634.39;1805613;79;20999;-59
2021/01/21 06:12:01;;;;;;;115.35;43.63;;;;;;;-18.59;100.00;101632.14;1806032;79;21134;-59
2021/01/21 06:14:29;;;;;;;94.30;39.27;;;;;;;-18.48;100.00;101638.20;1809562;78;21253;-59
2021/01/21 06:16:58;;;;;;;122.45;48.10;;;;;;;-18.35;100.00;101632.23;1806410;79;21105;-60
2021/01/21 06:19:28;;;;;;;74.37;30.90;;;;;;;-18.21;100.00;101622.16;1800695;78;21244;-58
2021/01/21 06:22:02;;;;;;;105.37;43.80;;;;;;;-18.06;100.00;101620.38;1802468;78;21544;-58
2021/01/21 06:24:44;;;;;;;121.02;48.85;;;;;;;-17.93;100.00;101619.38;1803959;79;21186;-61
2021/01/21 06:27:12;;;;;;;109.67;43.87;;;;;;;-17.76;100.00;101611.41;1802141;79;21322;-59
2021/01/21 06:29:40;;;;;;;99.25;41.18;;;;;;;-17.61;100.00;101609.16;1746741;81;21218;-59
2021/01/21 06:32:12;;;;;;;98.40;43.23;;;;;;;-17.43;100.00;101614.84;1760456;79;21521;-59
2021/01/21 06:34:41;;;;;;;105.72;41.77;;;;;;;-17.25;100.00;101610.17;1755106;79;20952;-59
2021/01/21 06:37:15;;;;;;;107.03;44.03;;;;;;;-17.07;100.00;101619.61;1758143;79;20965;-60
2021/01/21 06:40:00;;;;;;;113.70;47.75;;;;;;;-16.89;100.00;101624.05;1758720;79;22272;-60
2021/01/21 06:42:41;;;;;;;124.97;53.20;;;;;;;-16.69;100.00;101630.53;1753754;79;21218;-60
2021/01/21 06:45:10;;;;;;;120.20;49.40;;;;;;;-16.51;100.00;101622.06;1748384;79;21056;-60
2021/01/21 06:47:38;;;;;;;125.20;50.58;;;;;;;-16.29;100.00;101613.17;1743854;79;21107;-61
2021/01/21 06:50:07;;;;;;;137.77;55.55;;;;;;;-15.96;100.00;101621.48;1750425;79;21104;-60
2021/01/21 06:52:38;;;;;;;112.52;49.75;;;;;;;-15.53;100.00;101621.06;1757960;80;21205;-60
2021/01/21 06:55:09;;;;;;;117.03;45.75;;;;;;;-14.96;100.00;101618.66;1792276;79;21008;-60
2021/01/21 06:57:42;;;;;;;145.28;53.50;;;;;;;-14.36;100.00;101613.97;1797602;79;20975;-60
2021/01/21 07:00:15;;;;;;;146.87;62.20;;;;;;;-13.72;100.00;101606.69;1791962;79;21135;-60
2021/01/21 07:02:50;;;;;;;124.82;56.25;;;;;;;-13.09;100.00;101602.55;1784554;79;21046;-60
2021/01/21 07:05:22;;;;;;;168.55;68.00;;;;;;;-12.39;100.00;101598.23;1791366;79;21192;-61
2021/01/21 07:07:59;;;;;;;144.05;61.77;;;;;;;-11.87;100.00;101599.28;1785786;78;21798;-60
2021/01/21 07:10:40;;;;;;;112.28;52.55;;;;;;;-11.55;100.00;101598.66;1734242;82;21573;-60
2021/01/21 07:13:19;;;;;;;123.38;52.55;;;;;;;-11.36;100.00;101599.79;1757114;80;21108;-60
2021/01/21 07:16:01;;;;;;;120.35;54.13;;;;;;;-11.09;100.00;101601.26;1728931;81;20998;-60
2021/01/21 07:18:36;;;;;;;189.72;91.47;;;;;;;-10.63;98.51;101596.63;1719682;82;21212;-60
2021/01/21 07:21:10;;;;;;;121.50;56.23;;;;;;;-10.10;94.15;101598.11;1748825;81;21076;-60
2021/01/21 07:23:54;;;;;;;108.42;53.35;;;;;;;-9.53;88.88;101593.13;1752675;79;21558;-60
2021/01/21 07:26:39;;;;;;;122.72;60.52;;;;;;;-9.04;83.53;101586.48;1753499;80;21122;-60
2021/01/21 07:29:15;;;;;;;114.52;58.35;;;;;;;-8.50;80.04;101589.72;1758685;79;21214;-60
2021/01/21 07:31:59;;;;;;;97.37;48.28;;;;;;;-7.87;75.18;101587.17;1758621;80;22196;-60
2021/01/21 07:34:45;;;;;;;118.55;60.43;;;;;;;-7.44;67.50;101603.94;1755264;80;21231;-59
2021/01/21 07:37:26;;;;;;;112.28;57.35;;;;;;;-7.25;64.12;101600.10;1753703;80;21166;-61
2021/01/21 07:39:56;;;;;;;114.47;59.03;;;;;;;-6.95;61.09;101600.23;1755715;80;22415;-60
2021/01/21 07:42:39;;;;;;;103.30;51.28;;;;;;;-6.64;58.30;101589.70;1747928;79;21197;-59
2021/01/21 07:45:24;;;;;;;104.40;54.67;;;;;;;-6.40;55.18;101594.57;1756759;79;22896;-59
2021/01/21 07:47:52;;;;;;;111.47;59.98;;;;;;;-6.27;53.25;101593.78;1755811;79;21162;-61
2021/01/21 07:50:30;;;;;;;92.17;51.15;;;;;;;-6.16;52.02;101597.30;1737959;81;21701;-59
2021/01/21 07:52:59;;;;;;;100.07;55.98;;;;;;;-6.02;51.35;101590.13;1790343;78;21042;-59
2021/01/21 07:55:41;;;;;;;83.12;48.30;;;;;;;-6.00;49.04;101592.61;1735494;82;21236;-61
2021/01/21 07:58:35;;;;;;;103.47;56.42;;;;;;;-6.07;49.21;101603.81;1733102;82;21386;-59
2021/01/21 08:01:10;;;;;;;84.40;47.90;;;;;;;-6.27;47.96;101602.66;1738436;81;21053;-59
2021/01/21 08:03:43;;;;;;;94.70;51.30;;;;;;;-6.45;47.68;101604.42;1742632;81;21137;-59
2021/01/21 08:06:17;;;;;;;106.03;58.25;;;;;;;-6.62;48.43;101610.79;1738793;81;21648;-59
2021/01/21 08:08:47;;;;;;;104.55;57.23;;;;;;;-6.55;48.56;101607.66;1787746;79;21205;-59
2021/01/21 08:11:17;;;;;;;101.67;57.05;;;;;;;-6.31;48.47;101596.45;1785464;79;21259;-60
2021/01/21 08:16:26;;;;;;;90.80;48.47;;;;;;;-5.51;46.81;101579.68;1825676;77;22768;-60
2021/01/21 08:19:01;;;;;;;87.45;45.55;;;;;;;-5.55;46.33;101578.12;1800633;78;21077;-60
2021/01/21 08:21:29;;;;;;;80.50;43.23;;;;;;;-5.68;45.83;101583.58;1797705;79;21258;-59
2021/01/21 08:24:01;;;;;;;75.30;41.92;;;;;;;-5.82;45.99;101573.00;1790306;78;21196;-59
2021/01/21 08:26:32;;;;;;;71.20;41.60;;;;;;;-6.00;45.80;101572.30;1803930;78;21049;-60
2021/01/21 08:29:01;;;;;;;63.92;36.90;;;;;;;-6.33;45.83;101578.72;1795828;78;21588;-60
2021/01/21 08:34:26;;;;;;;74.40;40.20;;;;;;;-6.82;47.08;101577.48;1822497;78;23712;-60
2021/01/21 08:37:04;;;;;;;63.85;34.67;;;;;;;-6.96;48.07;101575.33;1801684;79;21012;-60
2021/01/21 08:39:33;;;;;;;67.75;34.45;;;;;;;-6.87;48.14;101570.45;1796184;79;21713;-60
2021/01/21 08:42:03;;;;;;;64.72;36.30;;;;;;;-6.88;47.91;101567.09;1793598;79;21011;-60
2021/01/21 08:44:32;;;;;;;63.38;36.28;;;;;;;-6.83;49.03;101569.50;1798969;79;21844;-60
2021/01/21 08:47:01;;;;;;;62.00;33.38;;;;;;;-6.61;48.91;101569.33;1801215;79;21041;-61
2021/01/21 08:49:34;;;;;;;61.20;35.58;;;;;;;-6.46;49.10;101566.81;1794159;79;21410;-60
2021/01/21 08:52:09;;;;;;;69.30;37.10;;;;;;;-6.24;49.45;101559.45;1800927;79;21379;-60
2021/01/21 08:54:40;;;;;;;54.53;30.95;;;;;;;-6.06;48.37;101559.77;1803204;79;21081;-60
2021/01/21 08:57:14;;;;;;;67.30;35.20;;;;;;;-5.97;48.30;101563.33;1738151;80;21664;-60
2021/01/21 08:59:42;;;;;;;56.18;32.28;;;;;;;-5.97;47.77;101557.81;1731079;82;21142;-60
2021/01/21 09:02:10;;;;;;;58.98;32.05;;;;;;;-5.97;47.61;101550.20;1731112;81;21785;-60
2021/01/21 09:04:41;;;;;;;53.13;29.63;;;;;;;-6.03;47.50;101555.88;1749901;79;21378;-60
2021/01/21 09:07:11;;;;;;;50.43;27.90;;;;;;;-6.07;47.75;101545.43;1749823;79;21201;-60
2021/01/21 09:09:41;;;;;;;52.30;31.02;;;;;;;-6.17;47.65;101534.29;1742293;81;21198;-60
2021/01/21 09:12:25;;;;;;;52.50;29.80;;;;;;;-6.10;48.55;101530.28;1755567;80;21721;-60
2021/01/21 09:15:11;;;;;;;50.45;29.63;;;;;;;-5.82;49.41;101526.02;1743639;79;21494;-60
2021/01/21 09:17:41;;;;;;;44.80;25.50;;;;;;;-5.57;48.05;101531.59;1738710;80;21145;-60
2021/01/21 09:20:22;;;;;;;51.77;30.70;;;;;;;-5.31;48.17;101530.77;1739462;81;21183;-60
2021/01/21 09:22:54;;;;;;;50.55;29.57;;;;;;;-5.16;47.49;101528.98;1734640;81;21198;-60
2021/01/21 09:25:24;;;;;;;64.32;34.38;;;;;;;-5.16;46.93;101521.36;1730437;81;21539;-60
2021/01/21 09:27:56;;;;;;;54.10;30.80;;;;;;;-5.33;46.83;101519.39;1741672;81;22146;-59
2021/01/21 09:30:25;;;;;;;50.88;29.32;;;;;;;-5.43;47.17;101514.20;1746679;80;21378;-61
2021/01/21 09:32:53;;;;;;;54.60;28.27;;;;;;;-5.40;47.71;101504.77;1738604;82;21176;-60
2021/01/21 09:35:23;;;;;;;59.58;30.62;;;;;;;-5.29;48.03;101496.80;1728994;81;21149;-59
2021/01/21 09:37:53;;;;;;;61.15;31.57;;;;;;;-5.17;47.90;101491.30;1753321;80;21682;-60
2021/01/21 09:40:29;;;;;;;59.63;31.57;;;;;;;-5.10;48.04;101491.92;1757034;80;21080;-60
2021/01/21 09:43:04;;;;;;;64.75;33.10;;;;;;;-5.03;47.95;101492.55;1789915;77;21369;-60
2021/01/21 09:45:32;;;;;;;68.95;33.40;;;;;;;-4.97;47.42;101481.70;1733689;82;21572;-60
2021/01/21 09:48:02;;;;;;;54.65;30.57;;;;;;;-5.09;46.65;101480.87;1795898;79;21207;-61
2021/01/21 09:50:30;;;;;;;58.60;31.97;;;;;;;-5.25;47.24;101473.39;1785125;79;21235;-60
2021/01/21 09:52:59;;;;;;;53.85;28.23;;;;;;;-5.14;48.30;101478.48;1780288;79;21057;-60
2021/01/21 09:55:30;;;;;;;50.67;27.37;;;;;;;-5.01;47.32;101471.26;1789931;79;21548;-60
2021/01/21 09:57:59;;;;;;;51.42;28.62;;;;;;;-5.21;47.50;101475.77;1787325;79;21630;-60
2021/01/21 10:00:29;;;;;;;47.95;27.73;;;;;;;-5.18;48.21;101474.39;1781120;79;21615;-60
2021/01/21 10:02:57;;;;;;;46.33;29.27;;;;;;;-5.19;47.90;101467.66;1792967;79;21104;-61
2021/01/21 10:05:27;;;;;;;54.77;28.38;;;;;;;-5.34;47.73;101452.94;1801900;79;21101;-61
2021/01/21 10:07:56;;;;;;;69.85;35.33;;;;;;;-5.58;48.04;101457.09;1791528;79;21371;-61
2021/01/21 10:10:24;;;;;;;65.55;36.65;;;;;;;-5.67;49.19;101456.97;1800225;79;21254;-61
2021/01/21 10:12:54;;;;;;;63.23;35.15;;;;;;;-5.70;48.95;101451.98;1803255;79;20994;-61
2021/01/21 10:15:23;;;;;;;72.35;38.80;;;;;;;-5.66;49.50;101450.17;1797240;79;21138;-61
2021/01/21 10:17:52;;;;;;;67.17;36.33;;;;;;;-5.76;49.42;101444.55;1793871;77;21148;-61
2021/01/21 10:20:21;;;;;;;61.02;32.38;;;;;;;-5.79;50.07;101440.86;1796787;79;22577;-61
2021/01/21 10:22:51;;;;;;;53.73;30.37;;;;;;;-5.73;49.68;101433.03;1793730;79;21136;-61
2021/01/21 10:25:21;;;;;;;52.88;28.80;;;;;;;-5.70;50.47;101422.77;1801509;78;21510;-61
2021/01/21 10:27:50;;;;;;;57.03;29.45;;;;;;;-5.57;51.05;101424.45;1804461;79;21087;-62
2021/01/21 10:30:20;;;;;;;59.75;31.30;;;;;;;-5.46;50.57;101416.48;1739955;82;21277;-61
2021/01/21 10:32:48;;;;;;;64.25;33.30;;;;;;;-5.55;50.03;101421.88;1734571;81;21137;-61
2021/01/21 10:35:17;;;;;;;65.92;30.27;;;;;;;-5.58;50.16;101414.36;1727508;82;21235;-59
2021/01/21 10:37:46;;;;;;;64.20;31.27;;;;;;;-5.64;49.62;101407.34;1709123;82;21228;-61
2021/01/21 10:40:15;;;;;;;69.92;30.62;;;;;;;-5.83;49.99;101407.56;1723985;82;21146;-60
2021/01/21 10:42:45;;;;;;;62.55;30.75;;;;;;;-6.01;50.91;101405.64;1734181;82;21563;-59
2021/01/21 10:45:14;;;;;;;53.10;28.45;;;;;;;-6.05;51.09;101398.56;1727277;82;21204;-58
2021/01/21 10:47:44;;;;;;;53.75;28.65;;;;;;;-5.94;52.23;101387.62;1744794;81;21153;-61
2021/01/21 10:50:15;;;;;;;48.42;26.52;;;;;;;-5.88;51.58;101377.22;1775460;79;21023;-60
2021/01/21 10:52:44;;;;;;;50.38;27.10;;;;;;;-5.93;52.11;101373.22;1771024;79;21135;-59
2021/01/21 10:55:13;;;;;;;52.62;27.05;;;;;;;-5.85;52.89;101368.69;1787426;79;21646;-61
2021/01/21 10:57:42;;;;;;;62.55;28.65;;;;;;;-5.76;53.36;101368.81;1785106;79;21192;-60
2021/01/21 11:00:11;;;;;;;56.13;28.42;;;;;;;-5.67;53.51;101358.36;1780567;79;21050;-60
2021/01/21 11:02:39;;;;;;;56.05;29.12;;;;;;;-5.55;52.98;101363.02;1775053;79;21242;-60
2021/01/21 11:05:09;;;;;;;51.05;25.50;;;;;;;-5.52;53.11;101354.47;1788016;79;20963;-59
2021/01/21 11:07:37;;;;;;;54.13;26.48;;;;;;;-5.39;53.75;101359.05;1778039;79;21380;-59
2021/01/21 11:10:07;;;;;;;62.23;28.23;;;;;;;-5.40;53.30;101356.58;1776492;79;22066;-59
2021/01/21 11:12:37;;;;;;;65.03;29.12;;;;;;;-5.45;53.89;101345.75;1726812;82;21236;-59
2021/01/21 11:15:06;;;;;;;59.10;27.67;;;;;;;-5.50;53.59;101345.06;1716060;82;21196;-58
2021/01/21 11:17:35;;;;;;;57.95;28.10;;;;;;;-5.62;54.42;101334.45;1773041;79;21616;-59
2021/01/21 11:20:05;;;;;;;56.35;26.68;;;;;;;-5.78;54.06;101332.05;1772547;79;21585;-59
2021/01/21 11:22:33;;;;;;;56.73;25.88;;;;;;;-5.94;54.98;101334.76;1778014;79;22261;-59
2021/01/21 11:25:02;;;;;;;58.58;28.83;;;;;;;-5.96;56.49;101330.16;1778477;79;21629;-59
2021/01/21 11:27:32;;;;;;;59.33;27.37;;;;;;;-6.01;56.15;101325.69;1769662;79;21564;-59
2021/01/21 11:30:05;;;;;;;64.03;31.45;;;;;;;-6.17;56.95;101322.38;1779242;79;21388;-59
2021/01/21 11:32:33;;;;;;;82.75;38.98;;;;;;;-6.22;58.30;101324.22;1783522;79;21630;-59
2021/01/21 11:35:03;;;;;;;84.95;36.45;;;;;;;-6.31;58.54;101324.53;1795807;78;22639;-61
2021/01/21 11:37:32;;;;;;;152.20;57.55;;;;;;;-6.51;58.96;101334.05;1783617;79;21129;-62
2021/01/21 11:40:00;;;;;;;102.90;49.77;;;;;;;-6.69;60.72;101326.55;1781155;79;21607;-60
2021/01/21 11:42:30;;;;;;;65.70;34.13;;;;;;;-6.66;61.52;101319.30;1797332;79;21148;-60
2021/01/21 11:45:00;;;;;;;53.85;29.72;;;;;;;-6.64;62.07;101321.33;1788506;79;21128;-60
2021/01/21 11:47:29;;;;;;;96.12;50.63;;;;;;;-6.59;62.75;101319.51;1792704;77;21202;-60
2021/01/21 11:49:58;;;;;;;62.20;31.90;;;;;;;-6.58;62.95;101317.36;1787601;79;21244;-59
2021/01/21 11:52:27;;;;;;;53.13;28.75;;;;;;;-6.62;63.56;101316.62;1798608;77;21220;-61
2021/01/21 11:54:56;;;;;;;57.17;27.98;;;;;;;-6.74;63.98;101313.20;1790581;79;21520;-60
2021/01/21 11:57:24;;;;;;;47.33;25.40;;;;;;;-6.96;65.17;101313.45;1794871;77;21108;-59
2021/01/21 11:59:54;;;;;;;54.85;24.60;;;;;;;-7.14;66.81;101312.27;1794386;79;21247;-59
2021/01/21 12:02:23;;;;;;;48.55;25.60;;;;;;;-7.43;67.49;101307.58;1794789;77;21188;-59
2021/01/21 12:04:53;;;;;;;52.08;27.62;;;;;;;-7.82;69.48;101304.42;1788510;77;21109;-59
2021/01/21 12:07:21;;;;;;;83.33;38.17;;;;;;;-8.20;72.60;101311.72;1794034;79;21593;-60
2021/01/21 12:09:50;;;;;;;54.83;26.25;;;;;;;-8.45;75.29;101315.30;1730672;80;21275;-59
2021/01/21 12:12:20;;;;;;;51.65;27.48;;;;;;;-8.57;78.39;101309.66;1794982;78;21358;-60
2021/01/21 12:14:50;;;;;;;119.17;43.87;;;;;;;-8.66;81.39;101310.31;1803846;78;21521;-60
2021/01/21 12:17:19;;;;;;;82.05;37.15;;;;;;;-8.69;84.33;101316.27;1794418;79;21211;-60
2021/01/21 12:19:48;;;;;;;80.80;38.17;;;;;;;-8.64;86.86;101311.09;1793605;79;21740;-60
2021/01/21 12:22:17;;;;;;;123.60;56.00;;;;;;;-8.59;88.25;101310.14;1796404;79;21650;-60
2021/01/21 12:24:45;;;;;;;74.85;38.23;;;;;;;-8.54;89.41;101302.45;1794397;79;21370;-59
2021/01/21 12:27:13;;;;;;;92.12;57.62;;;;;;;-8.43;90.00;101315.66;1788970;79;21069;-60
2021/01/21 12:29:43;;;;;;;73.45;43.33;;;;;;;-8.40;88.77;101312.25;1795568;79;21463;-60
2021/01/21 12:32:12;;;;;;;80.67;49.30;;;;;;;-8.40;87.76;101308.45;1802223;77;21109;-60
2021/01/21 12:34:42;;;;;;;67.25;40.23;;;;;;;-8.47;87.91;101305.23;1796452;79;21117;-59
2021/01/21 12:37:11;;;;;;;52.05;29.32;;;;;;;-8.57;88.57;101315.98;1779833;79;22394;-62
2021/01/21 12:39:40;;;;;;;54.70;26.90;;;;;;;-8.64;89.81;101308.57;1789487;79;21518;-59
2021/01/21 12:42:09;;;;;;;50.00;27.40;;;;;;;-8.66;91.43;101314.11;1784555;79;21069;-60
2021/01/21 12:44:37;;;;;;;40.90;21.50;;;;;;;-8.62;92.00;101303.06;1781710;79;21152;-59
2021/01/21 12:47:07;;;;;;;46.23;20.72;;;;;;;-8.61;92.76;101296.69;1788666;79;21165;-61
2021/01/21 12:49:37;;;;;;;43.92;22.35;;;;;;;-8.64;92.78;101306.87;1797425;79;21562;-59
2021/01/21 12:52:09;;;;;;;93.33;65.47;;;;;;;-8.65;94.83;101306.48;1793741;77;21197;-60
2021/01/21 12:54:38;;;;;;;80.35;40.00;;;;;;;-8.62;95.08;101300.09;1797528;77;21145;-59
2021/01/21 12:57:07;;;;;;;100.38;57.08;;;;;;;-8.58;96.30;101302.95;1800851;79;21200;-60
2021/01/21 12:59:37;;;;;;;70.10;34.90;;;;;;;-8.54;97.16;101290.24;1797169;79;21190;-60
2021/01/21 13:02:06;;;;;;;421.10;248.65;;;;;;;-8.53;97.58;101296.95;1802785;77;21579;-60
2021/01/21 13:04:35;;;;;;;174.27;71.42;;;;;;;-8.52;98.17;101294.41;1738309;81;22384;-59
2021/01/21 13:07:04;;;;;;;362.90;119.33;;;;;;;-8.48;98.99;101289.67;1759511;80;20940;-60
2021/01/21 13:09:32;;;;;;;109.72;50.90;;;;;;;-8.46;99.13;101295.51;1769903;80;21220;-60
2021/01/21 13:12:00;;;;;;;131.18;57.73;;;;;;;-8.48;99.24;101296.43;1755952;80;20998;-59
2021/01/21 13:14:28;;;;;;;284.18;102.17;;;;;;;-8.52;99.77;101301.99;1765552;79;22555;-60
2021/01/21 13:16:57;;;;;;;355.12;121.65;;;;;;;-8.53;100.00;101305.80;1757855;80;21423;-60
2021/01/21 13:19:26;;;;;;;131.35;47.55;;;;;;;-8.49;100.00;101300.63;1767382;80;22393;-60
2021/01/21 13:21:54;;;;;;;63.70;28.12;;;;;;;-8.41;100.00;101302.97;1759688;80;21207;-60
2021/01/21 13:24:23;;;;;;;1999.90;823.32;;;;;;;-8.44;100.00;101299.28;1768014;80;21187;-60
2021/01/21 13:26:52;;;;;;;440.12;156.93;;;;;;;-8.49;100.00;101307.39;1763657;80;21188;-60
2021/01/21 13:29:21;;;;;;;123.10;64.55;;;;;;;-8.52;100.00;101309.58;1803503;79;21069;-60
2021/01/21 13:31:50;;;;;;;63.80;27.98;;;;;;;-8.54;100.00;101297.39;1794348;77;21018;-60
2021/01/21 13:34:18;;;;;;;148.70;54.58;;;;;;;-8.58;100.00;101280.20;1802707;77;21145;-60
2021/01/21 13:36:47;;;;;;;91.12;39.48;;;;;;;-8.68;100.00;101276.66;1792738;79;21216;-59
2021/01/21 13:39:16;;;;;;;49.27;25.17;;;;;;;-8.74;100.00;101275.55;1781839;79;22613;-59
2021/01/21 13:41:44;;;;;;;71.05;28.10;;;;;;;-8.79;100.00;101271.84;1797729;79;21063;-59
2021/01/21 13:44:13;;;;;;;62.27;30.17;;;;;;;-8.82;100.00;101263.09;1747271;80;21017;-60
2021/01/21 13:46:42;;;;;;;49.30;24.00;;;;;;;-8.89;100.00;101257.34;1742057;81;21561;-59
2021/01/21 13:49:10;;;;;;;70.30;27.62;;;;;;;-8.93;100.00;101251.13;1742358;81;21167;-61
2021/01/21 13:51:59;;;;;;;211.62;65.95;;;;;;;-8.95;100.00;101250.33;1779123;79;21264;-61
2021/01/21 13:54:27;;;;;;;170.77;60.92;;;;;;;-8.97;100.00;101256.69;1657635;84;21712;-61
2021/01/21 13:56:59;;;;;;;76.72;34.05;;;;;;;-9.01;100.00;101256.36;1648939;84;21683;-60
2021/01/21 13:59:27;;;;;;;60.98;32.85;;;;;;;-9.04;100.00;101247.58;1654595;84;21184;-60
2021/01/21 14:01:56;;;;;;;47.17;26.52;;;;;;;-9.06;100.00;101246.33;1658727;84;21528;-62
2021/01/21 14:04:25;;;;;;;41.45;23.77;;;;;;;-9.06;100.00;101241.28;1652744;84;21384;-59
2021/01/21 14:06:53;;;;;;;34.35;20.75;;;;;;;-9.04;100.00;101239.17;1656532;84;21149;-60
2021/01/21 14:09:21;;;;;;;44.63;18.30;;;;;;;-9.02;100.00;101235.73;1654885;84;21152;-60
2021/01/21 14:11:52;;;;;;;35.88;18.80;;;;;;;-9.04;100.00;101238.73;1659430;84;21603;-60
2021/01/21 14:14:20;;;;;;;72.08;38.35;;;;;;;-9.07;100.00;101245.94;1657092;84;22512;-59
2021/01/21 14:16:52;;;;;;;107.37;59.20;;;;;;;-9.09;100.00;101247.69;1657075;84;21223;-60
2021/01/21 14:19:20;;;;;;;70.17;40.70;;;;;;;-9.12;100.00;101242.70;1658201;84;21677;-60
2021/01/21 14:21:49;;;;;;;131.43;79.42;;;;;;;-9.15;100.00;101227.61;1658746;84;21046;-60
2021/01/21 14:24:18;;;;;;;130.12;95.35;;;;;;;-9.15;100.00;101230.56;1658009;84;22367;-61
2021/01/21 14:26:46;;;;;;;68.78;37.38;;;;;;;-9.16;100.00;101224.69;1655509;84;21109;-62
2021/01/21 14:29:15;;;;;;;52.03;30.45;;;;;;;-9.13;100.00;101234.73;1657938;84;21410;-61
2021/01/21 14:31:44;;;;;;;45.12;22.65;;;;;;;-9.10;100.00;101237.16;1657716;84;21587;-62
2021/01/21 14:34:14;;;;;;;48.98;22.93;;;;;;;-9.06;100.00;101238.75;1658389;84;21252;-60
2021/01/21 14:36:43;;;;;;;61.15;27.00;;;;;;;-9.04;100.00;101245.05;1653729;84;21667;-59
2021/01/21 14:39:12;;;;;;;58.08;24.45;;;;;;;-9.00;100.00;101239.06;1659296;84;21448;-60
2021/01/21 14:41:40;;;;;;;53.15;24.55;;;;;;;-8.97;100.00;101232.69;1654728;84;21412;-60
2021/01/21 14:44:10;;;;;;;46.10;22.45;;;;;;;-8.90;100.00;101235.88;1656589;84;21127;-60
2021/01/21 14:46:39;;;;;;;45.55;23.67;;;;;;;-8.84;100.00;101246.69;1657797;84;21192;-60
2021/01/21 14:49:09;;;;;;;37.83;17.77;;;;;;;-8.75;100.00;101245.66;1655015;84;21160;-60
2021/01/21 14:51:38;;;;;;;36.08;17.90;;;;;;;-8.67;100.00;101242.52;1657158;84;21580;-60
2021/01/21 14:54:06;;;;;;;46.15;21.82;;;;;;;-8.64;100.00;101241.59;1653289;84;21484;-61
2021/01/21 14:56:37;;;;;;;;;;;;;;;-8.64;100.00;101238.62;1663643;84;21046;-60
2021/01/21 14:59:06;;;;;;;39.45;21.40;;;;;;;-8.60;100.00;101237.71;1656406;84;20340;-60
2021/01/21 15:01:35;;;;;;;45.40;20.40;;;;;;;-8.54;100.00;101244.74;1655393;84;21598;-61
2021/01/21 15:04:04;;;;;;;350.25;137.40;;;;;;;-8.49;100.00;101245.45;1659401;84;21263;-60
2021/01/21 15:06:33;;;;;;;52.25;28.55;;;;;;;-8.46;100.00;101249.17;1655972;84;22150;-61
2021/01/21 15:09:02;;;;;;;54.18;28.65;;;;;;;-8.41;100.00;101249.88;1656873;84;21658;-61
2021/01/21 15:11:30;;;;;;;43.68;22.52;;;;;;;-8.33;100.00;101240.40;1657831;84;21177;-61
2021/01/21 15:13:58;;;;;;;35.90;19.00;;;;;;;-8.27;100.00;101234.34;1655776;84;21246;-60
2021/01/21 15:16:27;;;;;;;40.30;21.12;;;;;;;-8.22;100.00;101235.90;1657797;84;21206;-61
2021/01/21 15:18:56;;;;;;;37.40;20.62;;;;;;;-8.22;100.00;101236.30;1658153;84;21233;-60
2021/01/21 15:21:24;;;;;;;43.87;19.35;;;;;;;-8.23;100.00;101235.92;1653629;84;21634;-60
2021/01/21 15:23:52;;;;;;;43.80;21.00;;;;;;;-8.25;100.00;101233.88;1657146;84;21572;-61
2021/01/21 15:26:21;;;;;;;41.08;20.92;;;;;;;-8.29;100.00;101225.54;1665539;84;21173;-60